createdAt,value
2023-01-17T00:00:48.818Z,20.85
2023-01-17T00:03:21.419Z,25.57
2023-01-17T00:06:11.653Z,17.32
2023-01-17T00:09:01.940Z,19.12
2023-01-17T00:11:34.916Z,19.75
2023-01-17T00:14:07.596Z,21.17
2023-01-17T00:16:40.653Z,21.68
2023-01-17T00:19:31.009Z,18.42
2023-01-17T00:22:24.482Z,19.57
2023-01-17T00:25:14.965Z,22.32
2023-01-17T00:27:46.453Z,18.15
2023-01-17T00:30:18.187Z,17.12
2023-01-17T00:32:49.808Z,19.37
2023-01-17T00:35:22.936Z,17.77
2023-01-17T00:38:05.868Z,18.42
2023-01-17T00:41:00.606Z,20.15
2023-01-17T00:43:51.261Z,21.07
2023-01-17T00:46:41.495Z,22.00
2023-01-17T00:49:32.113Z,19.42
2023-01-17T00:52:22.268Z,21.40
2023-01-17T00:55:12.618Z,20.12
2023-01-17T00:58:03.896Z,18.07
2023-01-17T01:00:54.596Z,18.27
2023-01-17T01:03:45.282Z,19.80
2023-01-17T01:06:36.674Z,22.13
2023-01-17T01:09:26.923Z,21.65
2023-01-17T01:12:18.911Z,18.62
2023-01-17T01:15:09.467Z,19.02
2023-01-17T01:18:00.045Z,17.57
2023-01-17T01:20:50.338Z,16.95
2023-01-17T01:23:41.059Z,21.60
2023-01-17T01:26:31.374Z,16.62
2023-01-17T01:29:21.233Z,20.52
2023-01-17T01:32:11.818Z,24.43
2023-01-17T01:34:44.361Z,20.65
2023-01-17T01:37:16.770Z,21.35
2023-01-17T01:39:49.357Z,17.80
2023-01-17T01:42:21.949Z,25.02
2023-01-17T01:44:55.025Z,20.45
2023-01-17T01:47:40.882Z,21.37
2023-01-17T01:50:13.957Z,20.68
2023-01-17T01:52:48.680Z,19.57
2023-01-17T01:55:29.480Z,18.80
2023-01-17T01:58:06.007Z,19.67
2023-01-17T02:00:41.119Z,19.42
2023-01-17T02:03:18.480Z,17.67
2023-01-17T02:05:50.946Z,20.68
2023-01-17T02:08:24.657Z,22.37
2023-01-17T02:10:57.232Z,21.17
2023-01-17T02:13:31.572Z,24.20
2023-01-17T02:16:37.566Z,21.60
2023-01-17T02:19:32.944Z,18.45
2023-01-17T02:22:22.155Z,21.02
2023-01-17T02:25:14.769Z,22.73
2023-01-17T02:28:16.561Z,19.73
2023-01-17T02:30:53.842Z,18.48
2023-01-17T02:33:42.142Z,27.10
2023-01-17T02:36:34.062Z,21.90
2023-01-17T02:39:21.764Z,24.10
2023-01-17T02:41:58.168Z,18.48
2023-01-17T02:44:30.569Z,19.42
2023-01-17T02:47:02.931Z,20.72
2023-01-17T02:49:35.463Z,19.80
2023-01-17T02:52:42.515Z,22.80
2023-01-17T02:55:41.078Z,20.60
2023-01-17T02:58:43.502Z,19.20
2023-01-17T03:01:41.826Z,22.90
2023-01-17T03:04:24.164Z,19.55
2023-01-17T03:07:02.036Z,19.65
2023-01-17T03:09:34.591Z,17.87
2023-01-17T03:12:08.111Z,17.95
2023-01-17T03:14:42.826Z,19.57
2023-01-17T03:17:15.423Z,23.57
2023-01-17T03:19:47.750Z,18.52
2023-01-17T03:22:20.222Z,20.00
2023-01-17T03:24:52.903Z,16.70
2023-01-17T03:27:25.296Z,15.83
2023-01-17T03:29:57.706Z,16.70
2023-01-17T03:32:31.153Z,22.65
2023-01-17T03:35:04.711Z,19.10
2023-01-17T03:37:37.472Z,19.02
2023-01-17T03:40:11.105Z,18.67
2023-01-17T03:42:45.461Z,18.50
2023-01-17T03:45:18.170Z,18.80
2023-01-17T03:47:50.711Z,19.40
2023-01-17T03:50:23.141Z,18.75
2023-01-17T03:52:56.089Z,19.12
2023-01-17T03:55:28.691Z,17.23
2023-01-17T03:58:01.666Z,17.35
2023-01-17T04:00:34.490Z,19.42
2023-01-17T04:03:06.850Z,15.00
2023-01-17T04:05:39.510Z,18.75
2023-01-17T04:08:12.058Z,20.27
2023-01-17T04:10:44.909Z,24.77
2023-01-17T04:13:17.478Z,23.85
2023-01-17T04:15:50.807Z,21.45
2023-01-17T04:18:24.413Z,20.40
2023-01-17T04:20:57.322Z,21.57
2023-01-17T04:23:30.470Z,23.30
2023-01-17T04:26:03.816Z,22.07
2023-01-17T04:28:36.819Z,20.92
2023-01-17T04:31:10.282Z,21.50
2023-01-17T04:33:43.193Z,19.90
2023-01-17T04:36:15.633Z,27.60
2023-01-17T04:38:48.091Z,20.95
2023-01-17T04:41:20.765Z,22.82
2023-01-17T04:43:53.602Z,26.00
2023-01-17T04:46:26.011Z,21.27
2023-01-17T04:48:59.371Z,26.35
2023-01-17T04:51:31.979Z,27.98
2023-01-17T04:54:04.957Z,22.62
2023-01-17T04:56:37.391Z,25.90
2023-01-17T04:59:09.946Z,24.20
2023-01-17T05:01:42.929Z,25.88
2023-01-17T05:04:15.372Z,29.40
2023-01-17T05:06:48.046Z,25.25
2023-01-17T05:09:20.591Z,24.07
2023-01-17T05:11:53.735Z,27.70
2023-01-17T05:14:26.546Z,25.27
2023-01-17T05:16:59.353Z,27.02
2023-01-17T05:19:32.536Z,25.50
2023-01-17T05:22:06.573Z,30.15
2023-01-17T05:24:39.095Z,25.90
2023-01-17T05:27:12.273Z,32.63
2023-01-17T05:29:44.618Z,33.35
2023-01-17T05:32:17.019Z,25.30
2023-01-17T05:34:51.209Z,32.23
2023-01-17T05:37:24.601Z,31.35
2023-01-17T05:39:56.939Z,24.98
2023-01-17T05:42:30.122Z,28.55
2023-01-17T05:45:03.095Z,29.48
2023-01-17T05:47:36.050Z,30.75
2023-01-17T05:50:12.155Z,29.35
2023-01-17T05:52:56.948Z,28.35
2023-01-17T05:55:29.777Z,26.82
2023-01-17T05:58:02.474Z,30.15
2023-01-17T06:00:35.736Z,30.10
2023-01-17T06:03:08.199Z,31.30
2023-01-17T06:05:40.776Z,28.20
2023-01-17T06:08:13.499Z,35.90
2023-01-17T06:10:46.710Z,38.05
2023-01-17T06:13:20.936Z,36.40
2023-01-17T06:15:56.186Z,34.78
2023-01-17T06:18:29.223Z,35.43
2023-01-17T06:21:02.045Z,31.02
2023-01-17T06:23:34.416Z,31.02
2023-01-17T06:26:08.543Z,32.88
2023-01-17T06:28:40.957Z,36.83
2023-01-17T06:31:13.571Z,33.88
2023-01-17T06:33:46.264Z,36.95
2023-01-17T06:36:18.623Z,34.10
2023-01-17T06:38:54.125Z,38.05
2023-01-17T06:41:26.865Z,38.17
2023-01-17T06:43:59.381Z,35.05
2023-01-17T06:46:31.741Z,32.00
2023-01-17T06:49:04.336Z,34.55
2023-01-17T06:51:36.907Z,35.60
2023-01-17T06:54:10.305Z,34.05
2023-01-17T06:56:42.729Z,36.30
2023-01-17T06:59:15.501Z,29.65
2023-01-17T07:01:48.848Z,31.40
2023-01-17T07:04:21.992Z,32.45
2023-01-17T07:06:54.932Z,34.00
2023-01-17T07:09:28.186Z,32.45
2023-01-17T07:12:02.127Z,35.92
2023-01-17T07:14:34.977Z,31.97
2023-01-17T07:17:07.589Z,31.45
2023-01-17T07:19:40.488Z,28.90
2023-01-17T07:22:12.927Z,32.35
2023-01-17T07:24:45.596Z,35.85
2023-01-17T07:27:18.113Z,37.78
2023-01-17T07:29:51.804Z,36.60
2023-01-17T07:32:29.715Z,36.05
2023-01-17T07:35:02.332Z,31.33
2023-01-17T07:37:35.371Z,37.15
2023-01-17T07:40:09.475Z,38.05
2023-01-17T07:42:42.122Z,41.35
2023-01-17T07:45:15.544Z,40.33
2023-01-17T07:47:49.583Z,33.70
2023-01-17T07:50:21.966Z,36.75
2023-01-17T07:52:56.547Z,32.67
2023-01-17T07:58:02.916Z,37.80
2023-01-17T08:03:07.035Z,37.83
2023-01-17T08:05:40.414Z,35.65
2023-01-17T08:08:13.065Z,35.25
2023-01-17T08:10:46.453Z,37.25
2023-01-17T08:13:19.621Z,40.63
2023-01-17T08:15:54.210Z,37.65
2023-01-17T08:18:28.075Z,37.05
2023-01-17T08:21:00.377Z,34.20
2023-01-17T08:23:33.019Z,39.70
2023-01-17T08:26:05.507Z,38.40
2023-01-17T08:28:38.126Z,40.12
2023-01-17T08:31:11.296Z,43.30
2023-01-17T08:33:44.199Z,39.88
2023-01-17T08:36:16.671Z,41.25
2023-01-17T08:38:50.679Z,40.25
2023-01-17T08:43:55.372Z,36.68
2023-01-17T08:46:27.980Z,37.13
2023-01-17T08:49:03.025Z,41.48
2023-01-17T08:51:36.096Z,42.03
2023-01-17T08:54:09.899Z,37.50
2023-01-17T08:56:43.133Z,40.08
2023-01-17T08:59:15.601Z,34.78
2023-01-17T09:01:48.736Z,42.40
2023-01-17T09:04:21.455Z,43.78
2023-01-17T09:06:53.963Z,37.73
2023-01-17T09:09:26.558Z,44.10
2023-01-17T09:11:58.895Z,45.58
2023-01-17T09:14:31.232Z,37.15
2023-01-17T09:17:05.931Z,39.35
2023-01-17T09:19:41.066Z,44.85
2023-01-17T09:22:13.867Z,44.10
2023-01-17T09:24:46.250Z,42.20
2023-01-17T09:27:18.882Z,46.63
2023-01-17T09:29:51.381Z,44.77
2023-01-17T09:32:23.876Z,43.87
2023-01-17T09:34:58.012Z,40.90
2023-01-17T09:37:30.381Z,41.30
2023-01-17T09:40:02.848Z,39.10
2023-01-17T09:42:39.992Z,48.68
2023-01-17T09:45:18.724Z,41.50
2023-01-17T09:47:52.758Z,41.73
2023-01-17T09:50:44.999Z,39.35
2023-01-17T09:53:21.626Z,44.42
2023-01-17T09:56:01.953Z,40.75
2023-01-17T09:59:03.140Z,41.75
2023-01-17T10:01:48.709Z,44.85
2023-01-17T10:04:50.656Z,45.70
2023-01-17T10:07:37.085Z,45.40
2023-01-17T10:10:35.246Z,45.95
2023-01-17T13:25:20.415Z,43.15
2023-01-17T13:28:18.810Z,43.40
2023-01-17T13:31:02.897Z,45.58
2023-01-17T13:33:58.682Z,43.42
2023-01-17T13:36:44.944Z,42.13
2023-01-17T13:39:51.806Z,39.45
2023-01-17T13:42:49.981Z,45.58
2023-01-17T13:45:28.804Z,45.65
2023-01-17T13:48:21.319Z,47.85
2023-01-17T13:51:01.062Z,49.73
2023-01-17T13:53:41.321Z,46.25
2023-01-17T13:56:21.151Z,44.35
2023-01-17T13:59:01.860Z,49.75
2023-01-17T14:01:48.191Z,41.25
2023-01-17T14:04:21.018Z,45.12
2023-01-17T14:06:57.923Z,47.90
2023-01-17T14:09:43.055Z,45.70
2023-01-17T14:12:23.743Z,48.50
2023-01-17T14:14:57.173Z,48.68
2023-01-17T14:17:38.501Z,45.33
2023-01-17T14:20:17.071Z,53.23
2023-01-17T14:23:02.019Z,47.10
2023-01-17T14:25:40.243Z,50.12
2023-01-17T14:28:32.848Z,48.02
2023-01-17T14:31:09.623Z,48.40
2023-01-17T14:33:42.817Z,46.02
2023-01-17T14:36:25.361Z,50.28
2023-01-17T14:38:57.874Z,46.65
2023-01-17T14:41:30.876Z,49.00
2023-01-17T14:44:03.730Z,51.45
2023-01-17T14:46:36.730Z,48.25
2023-01-17T14:52:06.642Z,56.50
2023-01-17T14:54:40.993Z,48.00
2023-01-17T14:57:28.917Z,50.52
2023-01-17T15:00:21.388Z,53.17
2023-01-17T15:02:54.832Z,63.98
2023-01-17T15:05:28.990Z,47.80
2023-01-17T15:08:01.431Z,47.90
2023-01-17T15:10:34.270Z,55.10
2023-01-17T15:13:09.808Z,55.27
2023-01-17T15:18:22.578Z,51.60
2023-01-17T15:21:03.709Z,49.50
2023-01-17T15:23:42.906Z,54.73
2023-01-17T15:26:17.642Z,52.43
2023-01-17T15:28:49.915Z,50.55
2023-01-17T15:31:46.973Z,50.78
2023-01-17T15:34:30.177Z,50.85
2023-01-17T15:37:08.179Z,50.60
2023-01-17T15:39:41.717Z,44.88
2023-01-17T15:42:26.955Z,48.28
2023-01-17T15:45:03.177Z,50.20
2023-01-17T15:47:38.832Z,55.35
2023-01-17T15:50:26.817Z,52.98
2023-01-17T15:53:02.344Z,46.13
2023-01-17T15:55:39.993Z,51.20
2023-01-17T15:58:27.946Z,48.98
2023-01-17T16:01:00.583Z,45.25
2023-01-17T16:03:33.420Z,47.83
2023-01-17T16:06:08.391Z,47.60
2023-01-17T16:08:40.954Z,46.08
2023-01-17T16:11:13.558Z,52.78
2023-01-17T16:13:47.478Z,51.60
2023-01-17T16:16:24.168Z,43.98
2023-01-17T16:19:02.857Z,47.23
2023-01-17T16:21:35.343Z,55.08
2023-01-17T16:24:10.679Z,47.95
2023-01-17T16:26:43.675Z,53.48
2023-01-17T16:29:16.499Z,50.00
2023-01-17T16:31:49.238Z,47.93
2023-01-17T16:34:23.190Z,44.88
2023-01-17T16:36:56.118Z,52.25
2023-01-17T16:39:29.877Z,46.98
2023-01-17T16:42:05.526Z,47.95
2023-01-17T16:44:38.613Z,48.20
2023-01-17T16:47:13.650Z,43.87
2023-01-17T16:49:45.987Z,42.70
2023-01-17T16:52:18.411Z,45.17
2023-01-17T16:54:50.870Z,44.20
2023-01-17T16:57:23.273Z,49.80
2023-01-17T16:59:55.774Z,50.55
2023-01-17T17:02:28.140Z,51.02
2023-01-17T17:05:00.610Z,44.27
2023-01-17T17:07:35.119Z,41.50
2023-01-17T17:10:08.146Z,45.85
2023-01-17T17:12:40.649Z,45.63
2023-01-17T17:15:13.496Z,46.40
2023-01-17T17:17:46.340Z,47.40
2023-01-17T17:20:18.711Z,48.70
2023-01-17T17:22:52.163Z,46.75
2023-01-17T17:25:24.715Z,47.83
2023-01-17T17:27:57.103Z,45.52
2023-01-17T17:30:29.436Z,47.13
2023-01-17T17:33:03.712Z,44.50
2023-01-17T17:35:36.494Z,50.85
2023-01-17T17:38:09.052Z,50.35
2023-01-17T17:40:41.486Z,47.45
2023-01-17T17:43:14.317Z,43.40
2023-01-17T17:45:46.865Z,47.10
2023-01-17T17:48:20.569Z,51.20
2023-01-17T17:50:59.918Z,46.68
2023-01-17T17:53:32.384Z,49.18
2023-01-17T17:56:07.210Z,46.83
2023-01-17T18:01:11.777Z,47.13
2023-01-17T18:03:44.184Z,47.62
2023-01-17T18:06:17.646Z,44.98
2023-01-17T18:08:51.709Z,45.27
2023-01-17T18:11:27.007Z,46.23
2023-01-17T18:16:40.570Z,44.93
2023-01-17T18:19:22.730Z,45.78
2023-01-17T18:21:55.674Z,44.50
2023-01-17T18:24:29.028Z,48.00
2023-01-17T18:27:01.664Z,47.87
2023-01-17T18:29:34.713Z,45.85
2023-01-17T18:32:07.253Z,42.62
2023-01-17T18:34:41.373Z,44.23
2023-01-17T18:37:13.785Z,49.45
2023-01-17T18:39:46.395Z,48.45
2023-01-17T18:42:18.883Z,43.02
2023-01-17T18:44:51.481Z,45.10
2023-01-17T18:47:24.041Z,44.88
2023-01-17T18:49:56.390Z,46.02
2023-01-17T18:52:28.963Z,44.93
2023-01-17T18:55:01.379Z,40.75
2023-01-17T18:57:34.041Z,47.23
2023-01-17T19:00:07.758Z,54.83
2023-01-17T19:02:40.573Z,44.33
2023-01-17T19:05:14.863Z,43.45
2023-01-17T19:07:47.378Z,47.70
2023-01-17T19:10:20.554Z,39.53
2023-01-17T19:12:53.032Z,42.38
2023-01-17T19:15:25.639Z,42.25
2023-01-17T19:17:58.353Z,41.80
2023-01-17T19:20:31.337Z,42.27
2023-01-17T19:23:03.805Z,41.98
2023-01-17T19:25:37.849Z,42.05
2023-01-17T19:28:11.115Z,41.75
2023-01-17T19:30:43.429Z,38.38
2023-01-17T19:33:15.988Z,38.75
2023-01-17T19:35:48.374Z,43.50
2023-01-17T19:38:21.145Z,39.67
2023-01-17T19:40:53.584Z,37.20
2023-01-17T19:43:26.000Z,39.15
2023-01-17T19:46:01.546Z,34.48
2023-01-17T19:48:34.017Z,40.33
2023-01-17T19:51:09.766Z,40.65
2023-01-17T19:53:42.935Z,39.48
2023-01-17T19:56:20.750Z,39.95
2023-01-17T19:58:53.304Z,41.45
2023-01-17T20:01:28.833Z,39.13
2023-01-17T20:04:02.515Z,40.17
2023-01-17T20:06:36.910Z,44.00
2023-01-17T20:09:09.345Z,41.65
2023-01-17T20:11:43.563Z,40.00
2023-01-17T20:14:16.766Z,38.08
2023-01-17T20:16:49.819Z,40.73
2023-01-17T20:19:22.755Z,38.15
2023-01-17T20:21:56.031Z,43.48
2023-01-17T20:24:28.703Z,40.63
2023-01-17T20:27:02.101Z,38.73
2023-01-17T20:29:36.028Z,40.33
2023-01-17T20:32:08.573Z,41.88
2023-01-17T20:34:41.414Z,40.55
2023-01-17T20:37:13.970Z,39.00
2023-01-17T20:39:48.042Z,42.00
2023-01-17T20:42:21.691Z,39.25
2023-01-17T20:44:54.312Z,37.50
2023-01-17T20:47:28.273Z,41.85
2023-01-17T20:50:03.265Z,42.67
2023-01-17T20:52:35.984Z,41.23
2023-01-17T20:55:09.334Z,44.93
2023-01-17T20:57:42.695Z,42.85
2023-01-17T21:00:17.169Z,46.05
2023-01-17T21:02:50.182Z,43.30
2023-01-17T21:05:24.743Z,43.68
2023-01-17T21:07:57.842Z,44.75
2023-01-17T21:10:30.580Z,41.10
2023-01-17T21:13:02.908Z,41.10
2023-01-17T21:15:35.239Z,43.75
2023-01-17T21:18:07.821Z,43.15
2023-01-17T21:20:40.280Z,42.90
2023-01-17T21:23:14.533Z,41.98
2023-01-17T21:26:15.527Z,34.20
2023-01-17T21:28:49.251Z,44.18
2023-01-17T21:31:27.376Z,37.10
2023-01-17T21:34:05.085Z,37.45
2023-01-17T21:36:41.950Z,37.63
2023-01-17T21:39:19.925Z,38.02
2023-01-17T21:41:52.716Z,43.08
2023-01-17T21:44:26.036Z,49.33
2023-01-17T21:47:00.034Z,37.17
2023-01-17T21:49:33.217Z,39.03
2023-01-17T21:52:06.274Z,40.00
2023-01-17T21:54:57.369Z,39.00
2023-01-17T21:57:48.774Z,42.15
2023-01-17T22:00:21.267Z,36.77
2023-01-17T22:02:53.629Z,39.35
2023-01-17T22:05:26.174Z,40.73
2023-01-17T22:08:14.894Z,33.33
2023-01-17T22:10:47.791Z,41.68
2023-01-17T22:13:20.652Z,42.30
2023-01-17T22:16:00.744Z,49.10
2023-01-17T22:18:36.232Z,40.90
2023-01-17T22:21:13.871Z,38.38
2023-01-17T22:23:52.311Z,36.00
2023-01-17T22:26:28.290Z,39.88
2023-01-17T22:29:04.451Z,37.58
2023-01-17T22:31:37.316Z,41.28
2023-01-17T22:34:09.810Z,41.37
2023-01-17T22:36:42.397Z,41.40
2023-01-17T22:39:14.931Z,42.45
2023-01-17T22:41:47.291Z,37.85
2023-01-17T22:44:19.776Z,39.03
2023-01-17T22:46:52.120Z,35.20
2023-01-17T22:49:24.661Z,35.65
2023-01-17T22:51:57.129Z,34.48
2023-01-17T22:54:30.436Z,36.88
2023-01-17T22:57:03.045Z,37.58
2023-01-17T22:59:35.853Z,40.60
2023-01-17T23:02:08.778Z,40.17
2023-01-17T23:04:41.060Z,38.63
2023-01-17T23:07:13.451Z,41.65
2023-01-17T23:09:46.638Z,34.65
2023-01-17T23:12:19.014Z,38.08
2023-01-17T23:15:09.679Z,38.10
2023-01-17T23:18:01.082Z,40.75
2023-01-17T23:20:33.483Z,37.30
2023-01-17T23:23:06.218Z,38.42
2023-01-17T23:25:39.223Z,36.38
2023-01-17T23:28:11.757Z,37.08
2023-01-17T23:30:44.503Z,36.48
2023-01-17T23:33:17.817Z,41.33
2023-01-17T23:35:50.307Z,40.28
2023-01-17T23:38:34.251Z,32.33
2023-01-17T23:41:26.993Z,34.70
2023-01-17T23:43:59.994Z,33.90
2023-01-17T23:46:33.181Z,35.20
2023-01-17T23:49:06.180Z,35.80
2023-01-17T23:51:38.589Z,35.33
2023-01-17T23:54:12.168Z,36.55
2023-01-17T23:56:44.906Z,34.67
2023-01-17T23:59:17.423Z,34.15
